Knab, Washington
Current Conditions -  °F | °C
As of 5:35 AM on Friday 28 Nov 2014 (Local Time) from KCLS Reporting Station
NA  
Wind Chill: 54°   Ceiling: NA
Heat Index: 54°   Visibility: 10mi
Dew Point: 52°   Wind: 12mph
Humidity: 94%   Direction: 180°S
Pressure: 29.62"   Gusts: NA
Location:  46.4364°N, 122.718°W
Report Text: KCLS 281335Z AUTO 18010KT 10SM 12/11 A2962 RMK AO2
Loading
Personal Weather Stations






























Interactive Weather Map New forecast layout! Learn more

10-Day Weather Forecast

Advertisements
Track Severe Weather on mobile